CheckWX is a tool to help pilots better visualize weather data.  It is not intended as a substitute for an official pre-flight weather briefing.

07:38:47 UTC

KGYY TAF
Gary / Chicago International Airport
Gary, Indiana, USA
KGYY 240530Z 2406/2506 25006KT P6SM BKN250 FM241000 32006KT P6SM BKN200 FM241200 02008KT P6SM BKN150 FM241500 05010KT P6SM FEW020 OVC120 FM242100 04013KT 6SM -RA BKN025 OVC050 FM250200 05014G21KT 4SM -RA BKN008 OVC015

Feb-24@
06:00 UTC

Feb-24 @ 06:00 UTC

Feb-24@
10:00 UTC

Feb-24 @ 10:00 UTC

KGYY 240530Z 2406/2506 25006KT P6SM BKN250
Wind
  • 250° at 6 KTS
Cloud Levels
  • Broken at 25,000' AGL

Feb-24@
10:00 UTC

Feb-24 @ 10:00 UTC

Feb-24@
12:00 UTC

Feb-24 @ 12:00 UTC

FM241000 32006KT P6SM BKN200

From

From Standard forecast or significant change

Wind
  • 320° at 6 KTS
Cloud Levels
  • Broken at 20,000' AGL

Feb-24@
12:00 UTC

Feb-24 @ 12:00 UTC

Feb-24@
15:00 UTC

Feb-24 @ 15:00 UTC

FM241200 02008KT P6SM BKN150

From

From Standard forecast or significant change

Wind
  • 020° at 8 KTS
Cloud Levels
  • Broken at 15,000' AGL

Feb-24@
15:00 UTC

Feb-24 @ 15:00 UTC

Feb-24@
21:00 UTC

Feb-24 @ 21:00 UTC

FM241500 05010KT P6SM FEW020 OVC120

From

From Standard forecast or significant change

Wind
  • 050° at 10 KTS
Cloud Levels
  • Few at 2,000' AGL
  • Overcast at 12,000' AGL

Feb-24@
21:00 UTC

Feb-24 @ 21:00 UTC

Feb-25@
02:00 UTC

Feb-25 @ 02:00 UTC

FM242100 04013KT 6SM -RA BKN025 OVC050

From

From Standard forecast or significant change

Wind
  • 040° at 13 KTS
Conditions
Light Rain
Cloud Levels
  • Broken at 2,500' AGL
  • Overcast at 5,000' AGL

Feb-25@
02:00 UTC

Feb-25 @ 02:00 UTC

Feb-25@
06:00 UTC

Feb-25 @ 06:00 UTC

FM250200 05014G21KT 4SM -RA BKN008 OVC015

From

From Standard forecast or significant change

Wind
  • 050° at 14 KTS
  • {Gusting to 21 KTS
Conditions
Light Rain
Cloud Levels
  • Broken at 800' AGL
  • Overcast at 1,500' AGL